Time;durP1;ratioP1;P1;durP2;ratioP2;P2;SDS_P1;SDS_P2;PMS_P1;PMS_P2;Temp;Humidity;BMP_temperature;BMP_pressure;BME280_temperature;BME280_humidity;BME280_pressure;Samples;Min_cycle;Max_cycle;Signal;HPM_P1;HPM_P2
2021/07/19 00:01:49;;;;;;;6.37;5.78;;;;;;;;;;4404260;32;20292;-56
2021/07/19 00:04:15;;;;;;;8.98;5.95;;;;;;;;;;4404010;32;20256;-55
2021/07/19 00:06:40;;;;;;;6.97;5.90;;;;;;;;;;4404144;32;20304;-54
2021/07/19 00:09:06;;;;;;;6.85;5.32;;;;;;;;;;4403963;32;20221;-55
2021/07/19 00:11:31;;;;;;;11.05;5.85;;;;;;;;;;4403329;32;20298;-55
2021/07/19 00:13:57;;;;;;;6.18;5.32;;;;;;;;;;4403250;32;20260;-54
2021/07/19 00:16:23;;;;;;;7.28;5.97;;;;;;;;;;4403578;32;20288;-55
2021/07/19 00:18:49;;;;;;;6.65;5.85;;;;;;;;;;4403767;32;20305;-55
2021/07/19 00:21:14;;;;;;;7.78;6.22;;;;;;;;;;4403805;32;20284;-55
2021/07/19 00:23:40;;;;;;;8.73;5.93;;;;;;;;;;4404075;32;20218;-55
2021/07/19 00:26:05;;;;;;;9.35;6.22;;;;;;;;;;4403636;32;20308;-55
2021/07/19 00:28:31;;;;;;;11.20;6.12;;;;;;;;;;4403608;32;20233;-55
2021/07/19 00:30:57;;;;;;;7.10;5.37;;;;;;;;;;4403740;32;20311;-55
2021/07/19 00:33:22;;;;;;;5.87;5.18;;;;;;;;;;4403415;32;20302;-55
2021/07/19 00:35:48;;;;;;;12.27;5.28;;;;;;;;;;4403692;32;20296;-54
2021/07/19 00:38:14;;;;;;;10.77;5.78;;;;;;;;;;4403151;32;20255;-55
2021/07/19 00:40:39;;;;;;;6.18;5.57;;;;;;;;;;4403649;32;20789;-56
2021/07/19 00:43:06;;;;;;;6.37;5.40;;;;;;;;;;4402787;32;20589;-54
2021/07/19 00:45:32;;;;;;;8.88;6.47;;;;;;;;;;4403106;32;20214;-55
2021/07/19 00:48:00;;;;;;;7.78;6.07;;;;;;;;;;4403313;32;20255;-54
2021/07/19 00:50:32;;;;;;;8.15;6.00;;;;;;;;;;4401269;32;20596;-55
2021/07/19 00:52:59;;;;;;;6.93;6.22;;;;;;;;;;4388247;32;20226;-55
2021/07/19 00:55:33;;;;;;;8.43;6.50;;;;;;;;;;4387920;32;20202;-55
2021/07/19 00:58:00;;;;;;;8.15;6.28;;;;;;;;;;4388198;32;20250;-55
2021/07/19 01:00:28;;;;;;;8.07;5.25;;;;;;;;;;4387756;32;20209;-55
2021/07/19 01:02:54;;;;;;;8.38;5.18;;;;;;;;;;4387546;32;20285;-54
2021/07/19 01:05:20;;;;;;;6.87;5.85;;;;;;;;;;4388292;32;20610;-55
2021/07/19 01:07:48;;;;;;;6.95;5.03;;;;;;;;;;4388930;32;20336;-54
2021/07/19 01:10:17;;;;;;;6.40;5.40;;;;;;;;;;4390480;32;20337;-55
2021/07/19 01:12:48;;;;;;;11.52;5.93;;;;;;;;;;4392138;32;20214;-55
2021/07/19 01:15:14;;;;;;;8.82;6.20;;;;;;;;;;4405620;32;20327;-55
2021/07/19 01:17:41;;;;;;;7.97;5.37;;;;;;;;;;4405923;32;20314;-54
2021/07/19 01:20:09;;;;;;;10.52;5.97;;;;;;;;;;4405407;32;20365;-54
2021/07/19 01:23:29;;;;;;;5.70;5.05;;;;;;;;;;4404226;32;20673;-55
2021/07/19 01:26:03;;;;;;;8.15;5.53;;;;;;;;;;4343399;33;20211;-55
2021/07/19 01:28:37;;;;;;;6.12;5.50;;;;;;;;;;4403896;32;20261;-54
2021/07/19 01:31:25;;;;;;;7.45;6.32;;;;;;;;;;4401447;32;20626;-54
2021/07/19 01:33:57;;;;;;;10.15;6.80;;;;;;;;;;4389084;32;20252;-55
2021/07/19 01:36:28;;;;;;;13.25;8.38;;;;;;;;;;4390317;32;20201;-55
2021/07/19 01:38:54;;;;;;;13.15;9.13;;;;;;;;;;4403349;32;20747;-55
2021/07/19 01:41:22;;;;;;;12.23;10.55;;;;;;;;;;4405356;32;20217;-54
2021/07/19 01:43:48;;;;;;;14.25;11.80;;;;;;;;;;4405317;32;20297;-54
2021/07/19 01:46:15;;;;;;;13.82;12.32;;;;;;;;;;4405458;32;20718;-54
2021/07/19 01:48:42;;;;;;;13.10;11.00;;;;;;;;;;4404692;32;20941;-54
2021/07/19 01:51:08;;;;;;;10.77;8.25;;;;;;;;;;4404864;32;20630;-55
2021/07/19 01:53:34;;;;;;;18.55;7.47;;;;;;;;;;4405419;32;20342;-55
2021/07/19 01:56:00;;;;;;;9.32;6.62;;;;;;;;;;4405214;32;20276;-55
2021/07/19 01:58:27;;;;;;;12.18;8.45;;;;;;;;;;4404833;32;20293;-55
2021/07/19 02:00:54;;;;;;;16.73;6.85;;;;;;;;;;4405000;32;20220;-55
2021/07/19 02:03:24;;;;;;;9.60;7.18;;;;;;;;;;4403632;32;20264;-54
2021/07/19 02:05:52;;;;;;;12.23;11.05;;;;;;;;;;4404952;32;20221;-55
2021/07/19 02:08:19;;;;;;;16.10;10.43;;;;;;;;;;4404899;32;20265;-55
2021/07/19 02:10:49;;;;;;;11.02;8.57;;;;;;;;;;4405081;32;20349;-55
2021/07/19 02:13:16;;;;;;;10.70;7.53;;;;;;;;;;4404304;32;20291;-54
2021/07/19 02:15:42;;;;;;;8.52;7.25;;;;;;;;;;4404544;32;20586;-55
2021/07/19 02:18:10;;;;;;;7.70;6.82;;;;;;;;;;4404461;32;20470;-55
2021/07/19 02:20:36;;;;;;;8.77;6.55;;;;;;;;;;4403819;32;20535;-54
2021/07/19 02:23:04;;;;;;;9.07;6.93;;;;;;;;;;4404629;32;20202;-55
2021/07/19 02:25:30;;;;;;;13.02;7.43;;;;;;;;;;4404631;32;20257;-55
2021/07/19 02:27:57;;;;;;;12.45;6.50;;;;;;;;;;4403262;32;20421;-54
2021/07/19 02:30:23;;;;;;;8.63;6.70;;;;;;;;;;4404696;32;20225;-55
2021/07/19 02:32:53;;;;;;;9.82;6.32;;;;;;;;;;4392641;32;20218;-55
2021/07/19 02:35:21;;;;;;;10.65;7.82;;;;;;;;;;4391679;32;20221;-55
2021/07/19 02:37:51;;;;;;;8.60;7.15;;;;;;;;;;4404460;32;20229;-55
2021/07/19 02:40:20;;;;;;;12.43;7.85;;;;;;;;;;4403673;32;20523;-56
2021/07/19 02:42:50;;;;;;;10.50;7.18;;;;;;;;;;4403825;32;20681;-55
2021/07/19 02:45:17;;;;;;;7.93;6.72;;;;;;;;;;4404138;32;20227;-55
2021/07/19 02:47:49;;;;;;;7.72;6.37;;;;;;;;;;4403258;32;20248;-54
2021/07/19 02:50:19;;;;;;;6.85;6.05;;;;;;;;;;4403701;32;20221;-55
2021/07/19 02:52:45;;;;;;;8.05;6.20;;;;;;;;;;4404524;32;20209;-54
2021/07/19 02:55:16;;;;;;;7.07;5.18;;;;;;;;;;4404340;32;20298;-55
2021/07/19 02:57:43;;;;;;;7.07;6.22;;;;;;;;;;4404477;32;20615;-55
2021/07/19 03:00:14;;;;;;;11.90;6.60;;;;;;;;;;4404458;32;20618;-54
2021/07/19 03:02:57;;;;;;;6.35;5.72;;;;;;;;;;4404570;32;20688;-54
2021/07/19 03:05:27;;;;;;;7.85;6.00;;;;;;;;;;4404181;32;20528;-54
2021/07/19 03:07:56;;;;;;;6.80;5.35;;;;;;;;;;4403871;32;20197;-55
2021/07/19 03:10:22;;;;;;;6.07;5.47;;;;;;;;;;4403826;32;20290;-55
2021/07/19 03:13:00;;;;;;;7.03;5.82;;;;;;;;;;4400883;32;20292;-55
2021/07/19 03:15:32;;;;;;;7.18;5.78;;;;;;;;;;4389278;32;20213;-55
2021/07/19 03:18:01;;;;;;;11.57;6.32;;;;;;;;;;4389573;32;20644;-55
2021/07/19 03:20:29;;;;;;;8.27;5.90;;;;;;;;;;4388941;32;20217;-56
2021/07/19 03:22:56;;;;;;;10.40;6.05;;;;;;;;;;4387633;32;20291;-54
2021/07/19 03:25:25;;;;;;;6.82;5.65;;;;;;;;;;4388706;32;20280;-55
2021/07/19 03:27:53;;;;;;;10.02;5.57;;;;;;;;;;4388896;32;20350;-55
2021/07/19 03:30:20;;;;;;;13.20;6.28;;;;;;;;;;4388653;32;20254;-55
2021/07/19 03:32:48;;;;;;;12.52;5.95;;;;;;;;;;4402693;32;20218;-55
2021/07/19 03:35:21;;;;;;;6.78;5.82;;;;;;;;;;4385398;32;20385;-55
2021/07/19 03:37:48;;;;;;;7.25;6.03;;;;;;;;;;4390463;32;20251;-55
2021/07/19 03:40:17;;;;;;;7.62;6.12;;;;;;;;;;4389124;32;20730;-54
2021/07/19 03:42:43;;;;;;;6.95;6.05;;;;;;;;;;4388264;32;20227;-55
2021/07/19 03:45:13;;;;;;;6.20;5.25;;;;;;;;;;4386964;32;20415;-57
2021/07/19 03:47:40;;;;;;;9.15;5.35;;;;;;;;;;4388601;32;20217;-55
2021/07/19 03:50:06;;;;;;;7.25;5.97;;;;;;;;;;4399062;32;20294;-54
2021/07/19 03:52:33;;;;;;;8.13;5.87;;;;;;;;;;4388387;32;20199;-55
2021/07/19 03:54:59;;;;;;;9.15;6.70;;;;;;;;;;4388675;32;20593;-54
2021/07/19 03:57:26;;;;;;;13.82;5.93;;;;;;;;;;4388801;32;20705;-54
2021/07/19 03:59:53;;;;;;;6.57;5.65;;;;;;;;;;4388213;32;20260;-55
2021/07/19 04:02:19;;;;;;;6.05;5.43;;;;;;;;;;4388104;32;20385;-56
2021/07/19 04:04:51;;;;;;;8.77;6.22;;;;;;;;;;4388444;32;20264;-55
2021/07/19 04:07:17;;;;;;;18.30;6.57;;;;;;;;;;4387703;32;20342;-55
2021/07/19 04:09:43;;;;;;;12.50;5.75;;;;;;;;;;4388187;32;20723;-55
2021/07/19 04:12:15;;;;;;;8.57;6.65;;;;;;;;;;4388996;32;20198;-55
2021/07/19 04:14:41;;;;;;;11.50;7.55;;;;;;;;;;4388335;32;20250;-54
2021/07/19 04:17:09;;;;;;;7.62;6.20;;;;;;;;;;4388386;32;20225;-55
2021/07/19 04:19:35;;;;;;;8.25;7.03;;;;;;;;;;4388733;32;20237;-55
2021/07/19 04:22:01;;;;;;;13.15;7.55;;;;;;;;;;4388430;32;20787;-55
2021/07/19 04:24:27;;;;;;;7.68;6.40;;;;;;;;;;4388833;32;20548;-55
2021/07/19 04:26:53;;;;;;;8.88;7.90;;;;;;;;;;4388652;32;20273;-56
2021/07/19 04:29:22;;;;;;;12.40;7.15;;;;;;;;;;4388898;32;20225;-54
2021/07/19 04:31:53;;;;;;;12.95;7.12;;;;;;;;;;4396723;32;20285;-55
2021/07/19 04:34:30;;;;;;;9.60;7.80;;;;;;;;;;4403811;32;20301;-54
2021/07/19 04:37:01;;;;;;;11.05;7.68;;;;;;;;;;4403548;32;20244;-55
2021/07/19 04:39:27;;;;;;;11.32;8.23;;;;;;;;;;4403422;32;20304;-55
2021/07/19 04:41:53;;;;;;;10.98;8.27;;;;;;;;;;4403158;32;20646;-55
2021/07/19 04:44:19;;;;;;;11.98;8.10;;;;;;;;;;4406055;32;20287;-54
2021/07/19 04:46:44;;;;;;;8.45;7.30;;;;;;;;;;4406624;32;20284;-55
2021/07/19 04:49:10;;;;;;;10.93;7.25;;;;;;;;;;4405808;32;20225;-55
2021/07/19 04:51:36;;;;;;;15.80;7.65;;;;;;;;;;4406063;32;20318;-56
2021/07/19 04:54:05;;;;;;;13.90;7.55;;;;;;;;;;4406436;32;20248;-55
2021/07/19 04:56:32;;;;;;;8.13;7.28;;;;;;;;;;4406483;32;20542;-55
2021/07/19 04:59:00;;;;;;;13.85;7.05;;;;;;;;;;4406115;32;20217;-54
2021/07/19 05:01:28;;;;;;;11.43;7.55;;;;;;;;;;4406219;32;20201;-54
2021/07/19 05:03:56;;;;;;;9.95;5.95;;;;;;;;;;4405951;32;20315;-55
2021/07/19 05:06:27;;;;;;;9.65;8.20;;;;;;;;;;4406301;32;20198;-55
2021/07/19 05:08:53;;;;;;;13.60;7.03;;;;;;;;;;4406276;32;20224;-55
2021/07/19 05:11:21;;;;;;;12.65;8.13;;;;;;;;;;4405720;32;20502;-56
2021/07/19 05:13:47;;;;;;;10.40;7.62;;;;;;;;;;4406275;32;20361;-55
2021/07/19 05:16:14;;;;;;;9.27;8.15;;;;;;;;;;4405796;32;20653;-55
2021/07/19 05:18:40;;;;;;;10.10;7.57;;;;;;;;;;4406354;32;20308;-55
2021/07/19 05:21:07;;;;;;;9.43;7.82;;;;;;;;;;4405524;32;20268;-55
2021/07/19 05:23:32;;;;;;;10.55;8.50;;;;;;;;;;4405893;32;20631;-55
2021/07/19 05:25:58;;;;;;;11.90;8.15;;;;;;;;;;4406122;32;20268;-56
2021/07/19 05:28:24;;;;;;;11.07;7.90;;;;;;;;;;4406161;32;20342;-55
2021/07/19 05:30:54;;;;;;;11.10;9.02;;;;;;;;;;4406104;32;20312;-56
2021/07/19 05:33:23;;;;;;;12.40;7.65;;;;;;;;;;4391082;32;20218;-54
2021/07/19 05:35:50;;;;;;;17.27;8.95;;;;;;;;;;4389982;32;20209;-55
2021/07/19 05:38:16;;;;;;;9.48;8.57;;;;;;;;;;4397574;32;20275;-55
2021/07/19 05:40:42;;;;;;;11.32;8.18;;;;;;;;;;4403860;32;20327;-56
2021/07/19 05:43:08;;;;;;;10.27;8.57;;;;;;;;;;4390180;32;20249;-54
2021/07/19 05:45:34;;;;;;;12.68;7.72;;;;;;;;;;4402131;32;20315;-55
2021/07/19 05:48:00;;;;;;;12.68;8.73;;;;;;;;;;4403638;32;20778;-55
2021/07/19 05:50:27;;;;;;;22.30;10.32;;;;;;;;;;4404231;32;20293;-56
2021/07/19 05:52:53;;;;;;;14.48;9.45;;;;;;;;;;4403465;32;20221;-55
2021/07/19 05:55:18;;;;;;;11.95;8.13;;;;;;;;;;4399955;32;20377;-56
2021/07/19 05:57:45;;;;;;;22.17;9.77;;;;;;;;;;4402661;32;20354;-56
2021/07/19 06:00:14;;;;;;;16.12;9.60;;;;;;;;;;4405365;32;20297;-56
2021/07/19 06:02:40;;;;;;;9.45;8.20;;;;;;;;;;4404813;32;20209;-55
2021/07/19 06:05:06;;;;;;;12.48;8.70;;;;;;;;;;4404049;32;20571;-55
2021/07/19 06:07:32;;;;;;;12.43;8.35;;;;;;;;;;4404184;32;20364;-56
2021/07/19 06:09:57;;;;;;;11.52;8.55;;;;;;;;;;4405333;32;20230;-55
2021/07/19 06:12:23;;;;;;;11.85;8.77;;;;;;;;;;4404561;32;20812;-56
2021/07/19 06:14:48;;;;;;;11.38;8.80;;;;;;;;;;4404045;32;20636;-56
2021/07/19 06:17:14;;;;;;;11.25;10.02;;;;;;;;;;4405539;32;20291;-54
2021/07/19 06:19:42;;;;;;;13.62;10.95;;;;;;;;;;4405624;32;20354;-55
2021/07/19 06:22:10;;;;;;;13.85;9.73;;;;;;;;;;4405361;32;20216;-55
2021/07/19 06:24:39;;;;;;;15.60;9.23;;;;;;;;;;4405347;32;20217;-55
2021/07/19 06:27:06;;;;;;;18.20;10.82;;;;;;;;;;4405347;32;20274;-56
2021/07/19 06:29:32;;;;;;;12.45;10.15;;;;;;;;;;4405343;32;20222;-55
2021/07/19 06:31:57;;;;;;;15.68;10.85;;;;;;;;;;4399005;32;20346;-56
2021/07/19 06:34:23;;;;;;;16.40;11.98;;;;;;;;;;4394863;32;20213;-55
2021/07/19 06:36:49;;;;;;;12.25;11.00;;;;;;;;;;4404619;32;20689;-54
2021/07/19 06:39:14;;;;;;;15.23;12.73;;;;;;;;;;4404358;32;21108;-55
2021/07/19 06:41:40;;;;;;;19.48;14.00;;;;;;;;;;4404562;32;20303;-55
2021/07/19 06:44:05;;;;;;;18.62;15.30;;;;;;;;;;4405137;32;20322;-55
2021/07/19 06:46:31;;;;;;;17.98;15.18;;;;;;;;;;4405089;32;20302;-55
2021/07/19 06:48:56;;;;;;;16.87;11.80;;;;;;;;;;4404317;32;20226;-55
2021/07/19 06:51:22;;;;;;;16.98;15.20;;;;;;;;;;4405099;32;20280;-55
2021/07/19 06:53:47;;;;;;;21.25;14.75;;;;;;;;;;4404892;32;20217;-55
2021/07/19 06:56:13;;;;;;;18.42;15.35;;;;;;;;;;4405068;32;20308;-55
2021/07/19 06:58:38;;;;;;;22.27;16.20;;;;;;;;;;4404785;32;20320;-55
2021/07/19 07:01:04;;;;;;;20.48;17.42;;;;;;;;;;4403806;32;20320;-54
2021/07/19 07:03:29;;;;;;;19.92;15.23;;;;;;;;;;4404002;32;20649;-56
2021/07/19 07:05:55;;;;;;;25.20;16.67;;;;;;;;;;4404562;32;20801;-57
2021/07/19 07:08:20;;;;;;;23.20;16.33;;;;;;;;;;4404256;32;20229;-55
2021/07/19 07:10:48;;;;;;;22.50;18.35;;;;;;;;;;4404466;32;20256;-55
2021/07/19 07:13:13;;;;;;;25.37;16.75;;;;;;;;;;4404174;32;20565;-55
2021/07/19 07:15:39;;;;;;;19.30;16.62;;;;;;;;;;4404516;32;20288;-55
2021/07/19 07:18:08;;;;;;;24.33;17.40;;;;;;;;;;4404622;32;20210;-54
2021/07/19 07:20:37;;;;;;;21.45;17.02;;;;;;;;;;4404637;32;20190;-55
2021/07/19 07:23:03;;;;;;;20.60;16.75;;;;;;;;;;4404618;32;20197;-55
2021/07/19 07:25:29;;;;;;;23.42;16.75;;;;;;;;;;4404310;32;20653;-56
2021/07/19 07:27:55;;;;;;;29.35;17.30;;;;;;;;;;4402586;32;20309;-56
2021/07/19 07:30:20;;;;;;;21.90;18.20;;;;;;;;;;4403362;32;20308;-56
2021/07/19 07:32:47;;;;;;;25.73;17.50;;;;;;;;;;4402205;32;20296;-54
2021/07/19 07:35:14;;;;;;;19.70;17.70;;;;;;;;;;4403483;32;20271;-56
2021/07/19 07:37:40;;;;;;;20.10;17.92;;;;;;;;;;4404423;32;20285;-55
2021/07/19 07:40:08;;;;;;;20.25;17.05;;;;;;;;;;4404203;32;20225;-54
2021/07/19 07:42:34;;;;;;;21.52;17.67;;;;;;;;;;4394011;32;20705;-56
2021/07/19 07:44:59;;;;;;;20.85;17.95;;;;;;;;;;4397448;32;20255;-55
2021/07/19 07:47:25;;;;;;;24.10;17.75;;;;;;;;;;4404304;32;20328;-54
2021/07/19 07:49:51;;;;;;;21.25;17.00;;;;;;;;;;4401726;32;20249;-55
2021/07/19 07:52:17;;;;;;;19.80;17.15;;;;;;;;;;4403995;32;20272;-56
2021/07/19 07:54:43;;;;;;;27.20;18.80;;;;;;;;;;4403862;32;20315;-56
2021/07/19 07:57:08;;;;;;;18.37;16.48;;;;;;;;;;4403752;32;20273;-56
2021/07/19 07:59:34;;;;;;;22.37;17.77;;;;;;;;;;4403523;32;20235;-55
2021/07/19 08:02:01;;;;;;;17.77;15.95;;;;;;;;;;4403826;32;20283;-56
2021/07/19 08:04:29;;;;;;;26.62;16.85;;;;;;;;;;4400102;32;20205;-55
2021/07/19 08:06:59;;;;;;;20.48;17.37;;;;;;;;;;4402474;32;20241;-55
2021/07/19 08:09:25;;;;;;;20.37;18.10;;;;;;;;;;4402017;32;20260;-55
2021/07/19 08:11:51;;;;;;;21.00;17.90;;;;;;;;;;4396771;32;20585;-56
2021/07/19 08:14:17;;;;;;;20.73;17.12;;;;;;;;;;4402617;32;20251;-55
2021/07/19 08:16:42;;;;;;;22.83;18.55;;;;;;;;;;4404865;32;20253;-55
2021/07/19 08:19:09;;;;;;;23.95;18.40;;;;;;;;;;4405354;32;20318;-56
2021/07/19 08:21:37;;;;;;;22.45;17.80;;;;;;;;;;4401398;32;20264;-56
2021/07/19 08:24:03;;;;;;;21.23;15.55;;;;;;;;;;4399153;32;20217;-55
2021/07/19 08:26:28;;;;;;;21.00;15.20;;;;;;;;;;4405823;32;20261;-55
2021/07/19 08:28:55;;;;;;;18.60;16.05;;;;;;;;;;4404970;32;20258;-55
2021/07/19 08:31:22;;;;;;;17.90;15.75;;;;;;;;;;4406487;32;20269;-56
2021/07/19 08:33:48;;;;;;;19.42;16.12;;;;;;;;;;4404843;32;20229;-56
2021/07/19 08:36:13;;;;;;;20.00;15.90;;;;;;;;;;4405950;32;20330;-55
2021/07/19 08:38:39;;;;;;;24.40;16.12;;;;;;;;;;4405427;32;20251;-55
2021/07/19 08:41:05;;;;;;;20.35;14.80;;;;;;;;;;4403064;32;20774;-56
2021/07/19 08:43:32;;;;;;;17.30;15.50;;;;;;;;;;4404211;32;20236;-55
2021/07/19 08:45:58;;;;;;;19.55;14.85;;;;;;;;;;4406149;32;20289;-56
2021/07/19 08:48:24;;;;;;;20.65;16.23;;;;;;;;;;4405887;32;20816;-55
2021/07/19 08:50:49;;;;;;;18.83;15.13;;;;;;;;;;4406683;32;20299;-56
2021/07/19 08:53:15;;;;;;;16.20;14.52;;;;;;;;;;4405815;32;20260;-55
2021/07/19 08:55:44;;;;;;;18.50;14.48;;;;;;;;;;4405784;32;20379;-57
2021/07/19 08:58:13;;;;;;;20.83;13.90;;;;;;;;;;4405717;32;20300;-56
2021/07/19 09:00:39;;;;;;;15.05;13.38;;;;;;;;;;4404885;32;20290;-56
2021/07/19 09:03:04;;;;;;;18.40;15.73;;;;;;;;;;4404645;32;20229;-56
2021/07/19 09:05:30;;;;;;;16.92;14.80;;;;;;;;;;4406007;32;20381;-55
2021/07/19 09:07:56;;;;;;;20.83;14.98;;;;;;;;;;4406145;32;20403;-56
2021/07/19 09:10:28;;;;;;;18.25;14.45;;;;;;;;;;4404985;32;20263;-56
2021/07/19 09:12:58;;;;;;;19.90;13.60;;;;;;;;;;4404403;32;20446;-55
2021/07/19 09:15:37;;;;;;;16.00;13.05;;;;;;;;;;4400349;32;20347;-56
2021/07/19 09:18:05;;;;;;;15.82;13.50;;;;;;;;;;4404558;32;20264;-55
2021/07/19 09:20:33;;;;;;;20.75;13.32;;;;;;;;;;4405611;32;20217;-56
2021/07/19 09:22:59;;;;;;;23.27;14.45;;;;;;;;;;4404071;32;20323;-56
2021/07/19 09:25:25;;;;;;;16.02;13.43;;;;;;;;;;4405892;32;20311;-56
2021/07/19 09:27:52;;;;;;;18.90;14.35;;;;;;;;;;4405426;32;20248;-54
2021/07/19 09:30:19;;;;;;;23.83;13.93;;;;;;;;;;4401087;32;20236;-56
2021/07/19 09:32:54;;;;;;;14.73;13.20;;;;;;;;;;4400662;32;20342;-56
2021/07/19 09:35:20;;;;;;;19.02;12.10;;;;;;;;;;4404759;32;20252;-55
2021/07/19 09:37:45;;;;;;;14.00;12.65;;;;;;;;;;4404058;32;20308;-56
2021/07/19 09:40:11;;;;;;;24.42;12.45;;;;;;;;;;4405283;32;21132;-55
2021/07/19 09:42:43;;;;;;;20.17;12.60;;;;;;;;;;4404491;32;20300;-56
2021/07/19 09:45:09;;;;;;;18.23;12.13;;;;;;;;;;4396831;32;20316;-55
2021/07/19 09:47:40;;;;;;;15.60;12.55;;;;;;;;;;4405409;32;20308;-56
2021/07/19 09:50:14;;;;;;;19.05;13.38;;;;;;;;;;4403698;32;20316;-56
2021/07/19 09:52:41;;;;;;;15.75;12.10;;;;;;;;;;4401263;32;20281;-55
2021/07/19 09:55:23;;;;;;;15.48;11.65;;;;;;;;;;4402398;32;20398;-56
2021/07/19 09:57:56;;;;;;;16.25;11.68;;;;;;;;;;4402093;32;20247;-56
2021/07/19 10:00:22;;;;;;;19.85;12.50;;;;;;;;;;4401737;32;20241;-56
2021/07/19 10:02:48;;;;;;;17.05;12.88;;;;;;;;;;4400934;32;20263;-56
2021/07/19 10:05:26;;;;;;;12.40;11.05;;;;;;;;;;4399887;32;20340;-56
2021/07/19 10:07:52;;;;;;;12.70;9.45;;;;;;;;;;4400736;32;20229;-55
2021/07/19 10:10:18;;;;;;;12.98;9.85;;;;;;;;;;4400885;32;20264;-56
2021/07/19 10:12:43;;;;;;;14.85;10.95;;;;;;;;;;4402016;32;20629;-55
2021/07/19 10:15:13;;;;;;;14.07;11.30;;;;;;;;;;4401601;32;20312;-56
2021/07/19 10:17:40;;;;;;;13.65;9.93;;;;;;;;;;4399714;32;20217;-56
2021/07/19 10:20:07;;;;;;;17.98;10.60;;;;;;;;;;4401667;32;20237;-56
2021/07/19 10:22:33;;;;;;;14.50;10.57;;;;;;;;;;4403157;32;20264;-56
2021/07/19 10:24:59;;;;;;;21.42;12.32;;;;;;;;;;4401139;32;20260;-56
2021/07/19 10:27:29;;;;;;;15.43;11.68;;;;;;;;;;4400522;32;20296;-56
2021/07/19 10:29:56;;;;;;;13.55;10.70;;;;;;;;;;4401129;32;20646;-56
2021/07/19 10:32:23;;;;;;;14.93;11.20;;;;;;;;;;4398196;32;20312;-56
2021/07/19 10:34:54;;;;;;;17.45;10.98;;;;;;;;;;4402476;32;20324;-57
2021/07/19 10:37:28;;;;;;;13.85;11.15;;;;;;;;;;4404352;32;20225;-55
2021/07/19 10:39:57;;;;;;;11.77;10.45;;;;;;;;;;4403399;32;20221;-55
2021/07/19 10:42:34;;;;;;;22.62;13.98;;;;;;;;;;4388655;32;20248;-56
2021/07/19 10:45:08;;;;;;;19.87;13.50;;;;;;;;;;4397646;32;20237;-56
2021/07/19 10:47:45;;;;;;;19.10;13.55;;;;;;;;;;4394362;32;20321;-56
2021/07/19 10:50:16;;;;;;;16.87;13.70;;;;;;;;;;4401892;32;20266;-56
2021/07/19 10:52:41;;;;;;;18.05;13.18;;;;;;;;;;4403201;32;20624;-56
2021/07/19 10:55:09;;;;;;;22.00;14.50;;;;;;;;;;4402865;32;20312;-56
2021/07/19 10:57:44;;;;;;;18.17;13.70;;;;;;;;;;4400618;32;20228;-57
2021/07/19 11:00:13;;;;;;;20.15;14.00;;;;;;;;;;4402385;32;20393;-57
2021/07/19 11:02:39;;;;;;;16.98;13.20;;;;;;;;;;4402763;32;20233;-56
2021/07/19 11:05:06;;;;;;;24.35;15.43;;;;;;;;;;4403068;32;20245;-56
2021/07/19 11:07:44;;;;;;;23.48;14.70;;;;;;;;;;4402950;32;20273;-56
2021/07/19 11:10:29;;;;;;;24.37;15.43;;;;;;;;;;4403171;32;20221;-56
2021/07/19 11:12:58;;;;;;;21.65;17.00;;;;;;;;;;4402407;32;20250;-56
2021/07/19 11:15:41;;;;;;;20.80;14.75;;;;;;;;;;4396250;32;20317;-56
2021/07/19 11:18:17;;;;;;;23.38;15.57;;;;;;;;;;4387623;32;20348;-57
2021/07/19 11:20:44;;;;;;;15.77;14.07;;;;;;;;;;4386311;32;20272;-56
2021/07/19 11:23:11;;;;;;;22.17;15.43;;;;;;;;;;4386531;32;20263;-56
2021/07/19 11:25:43;;;;;;;24.02;16.05;;;;;;;;;;4387673;32;20264;-56
2021/07/19 11:28:17;;;;;;;20.65;14.98;;;;;;;;;;4387521;32;20643;-57
2021/07/19 11:30:59;;;;;;;19.77;14.63;;;;;;;;;;4389578;32;20559;-57
2021/07/19 11:33:31;;;;;;;18.98;16.30;;;;;;;;;;4399900;32;20241;-55
2021/07/19 11:35:57;;;;;;;22.45;16.08;;;;;;;;;;4398816;32;20339;-57
2021/07/19 11:38:22;;;;;;;18.65;16.45;;;;;;;;;;4401372;32;20578;-56
2021/07/19 11:40:48;;;;;;;18.75;16.77;;;;;;;;;;4401318;32;20763;-56
2021/07/19 11:43:24;;;;;;;20.80;16.92;;;;;;;;;;4401088;32;20304;-56
2021/07/19 11:45:52;;;;;;;16.60;13.85;;;;;;;;;;4402347;32;20252;-56
2021/07/19 11:48:22;;;;;;;15.60;11.93;;;;;;;;;;4401653;32;20240;-55
2021/07/19 11:50:48;;;;;;;16.00;13.80;;;;;;;;;;4400816;32;20229;-55
2021/07/19 11:53:14;;;;;;;13.20;11.52;;;;;;;;;;4402823;32;20229;-55
2021/07/19 11:55:39;;;;;;;21.45;14.20;;;;;;;;;;4402311;32;20298;-55
2021/07/19 11:58:06;;;;;;;17.48;11.85;;;;;;;;;;4401711;32;20233;-55
2021/07/19 12:00:34;;;;;;;19.15;12.15;;;;;;;;;;4403355;32;20217;-56
2021/07/19 12:03:06;;;;;;;13.95;12.00;;;;;;;;;;4403255;32;20268;-55
2021/07/19 12:05:34;;;;;;;19.05;12.63;;;;;;;;;;4403302;32;20266;-55
2021/07/19 12:08:08;;;;;;;17.87;13.18;;;;;;;;;;4403512;32;20206;-55
2021/07/19 12:10:37;;;;;;;16.52;12.02;;;;;;;;;;4403182;32;20392;-55
2021/07/19 12:13:14;;;;;;;12.15;10.77;;;;;;;;;;4403782;32;20228;-55
2021/07/19 12:15:53;;;;;;;14.52;12.48;;;;;;;;;;4401666;32;20233;-55
2021/07/19 12:18:52;;;;;;;16.00;11.48;;;;;;;;;;4403167;32;20292;-56
2021/07/19 12:21:23;;;;;;;12.63;11.32;;;;;;;;;;4385954;32;20240;-56
2021/07/19 12:23:54;;;;;;;16.27;11.43;;;;;;;;;;4403670;32;20233;-56
2021/07/19 12:26:22;;;;;;;12.50;11.05;;;;;;;;;;4402049;32;20631;-56
2021/07/19 12:29:00;;;;;;;13.05;11.75;;;;;;;;;;4401814;32;20238;-56
2021/07/19 12:31:54;;;;;;;13.15;11.63;;;;;;;;;;4399685;32;21007;-56
2021/07/19 12:34:32;;;;;;;16.52;12.05;;;;;;;;;;4388196;32;20241;-56
2021/07/19 12:37:00;;;;;;;15.13;11.90;;;;;;;;;;4389734;32;20335;-56
2021/07/19 12:39:29;;;;;;;15.77;11.30;;;;;;;;;;4403610;32;20221;-55
2021/07/19 12:41:56;;;;;;;12.50;11.07;;;;;;;;;;4403092;32;20352;-55
2021/07/19 12:44:25;;;;;;;17.05;11.12;;;;;;;;;;4403497;32;20233;-55
2021/07/19 12:46:52;;;;;;;13.35;11.68;;;;;;;;;;4403240;32;20311;-55
2021/07/19 12:49:29;;;;;;;21.62;12.18;;;;;;;;;;4398614;32;20356;-55
2021/07/19 12:52:00;;;;;;;15.52;12.15;;;;;;;;;;4388621;32;20280;-55
2021/07/19 12:54:25;;;;;;;13.50;12.05;;;;;;;;;;4388956;32;20209;-55
2021/07/19 12:56:51;;;;;;;20.30;13.43;;;;;;;;;;4388644;32;20729;-56
2021/07/19 12:59:16;;;;;;;14.48;13.00;;;;;;;;;;4387716;32;20241;-56
2021/07/19 13:01:45;;;;;;;16.08;12.40;;;;;;;;;;4388414;32;20277;-56
2021/07/19 13:04:18;;;;;;;14.13;12.23;;;;;;;;;;4389737;32;20225;-56
2021/07/19 13:06:45;;;;;;;15.98;12.57;;;;;;;;;;4391558;32;20241;-55
2021/07/19 13:09:20;;;;;;;14.73;11.68;;;;;;;;;;4389583;32;20301;-55
2021/07/19 13:11:46;;;;;;;17.55;11.73;;;;;;;;;;4390479;32;20600;-56
2021/07/19 13:14:14;;;;;;;12.25;10.88;;;;;;;;;;4390701;32;20252;-56
2021/07/19 13:16:43;;;;;;;14.63;11.57;;;;;;;;;;4390810;32;20267;-55
2021/07/19 13:19:08;;;;;;;13.73;11.25;;;;;;;;;;4390688;32;20735;-55
2021/07/19 13:21:34;;;;;;;14.20;11.38;;;;;;;;;;4390241;32;20287;-56
2021/07/19 13:24:00;;;;;;;14.38;11.40;;;;;;;;;;4390146;32;20578;-56
2021/07/19 13:26:31;;;;;;;18.33;12.63;;;;;;;;;;4390302;32;20281;-56
2021/07/19 13:29:07;;;;;;;14.70;11.82;;;;;;;;;;4390630;32;20267;-55
2021/07/19 13:31:33;;;;;;;15.45;12.00;;;;;;;;;;4393817;32;20544;-56
2021/07/19 13:33:59;;;;;;;14.50;11.70;;;;;;;;;;4392488;32;20385;-56
2021/07/19 13:36:32;;;;;;;18.50;11.35;;;;;;;;;;4405681;32;20629;-56
2021/07/19 13:38:58;;;;;;;16.62;10.60;;;;;;;;;;4405847;32;20278;-56
2021/07/19 13:41:24;;;;;;;15.13;12.10;;;;;;;;;;4404641;32;20361;-57
2021/07/19 13:44:00;;;;;;;14.85;11.68;;;;;;;;;;4389449;32;20265;-56
2021/07/19 13:46:26;;;;;;;15.75;10.80;;;;;;;;;;4390783;32;20202;-56
2021/07/19 13:48:51;;;;;;;11.98;10.75;;;;;;;;;;4391980;32;20336;-55
2021/07/19 13:51:17;;;;;;;12.98;11.18;;;;;;;;;;4406123;32;20264;-55
2021/07/19 13:53:42;;;;;;;14.60;10.68;;;;;;;;;;4406063;32;20226;-56
2021/07/19 13:56:08;;;;;;;11.63;10.43;;;;;;;;;;4405681;32;20416;-56
2021/07/19 13:58:33;;;;;;;12.50;11.30;;;;;;;;;;4405743;32;20304;-56
2021/07/19 14:01:00;;;;;;;12.77;11.40;;;;;;;;;;4406015;32;20284;-57
2021/07/19 14:03:26;;;;;;;13.05;11.68;;;;;;;;;;4405748;32;20754;-56
2021/07/19 14:05:52;;;;;;;13.98;10.40;;;;;;;;;;4405806;32;20293;-57
2021/07/19 14:08:18;;;;;;;11.88;10.43;;;;;;;;;;4404817;32;20236;-55
2021/07/19 14:10:44;;;;;;;18.15;9.80;;;;;;;;;;4404776;32;20351;-56
2021/07/19 14:13:11;;;;;;;11.10;8.70;;;;;;;;;;4405005;32;20554;-56
2021/07/19 14:15:37;;;;;;;13.90;9.18;;;;;;;;;;4404989;32;20202;-56
2021/07/19 14:18:03;;;;;;;10.35;9.13;;;;;;;;;;4404254;32;20243;-56
2021/07/19 14:20:29;;;;;;;9.30;8.40;;;;;;;;;;4405014;32;20777;-57
2021/07/19 14:22:56;;;;;;;13.27;9.85;;;;;;;;;;4404992;32;20311;-56
2021/07/19 14:25:23;;;;;;;11.27;8.52;;;;;;;;;;4403422;32;20230;-56
2021/07/19 14:27:49;;;;;;;11.80;7.95;;;;;;;;;;4404574;32;20236;-56
2021/07/19 14:30:16;;;;;;;11.05;9.15;;;;;;;;;;4405388;32;20251;-56
2021/07/19 14:32:44;;;;;;;11.20;8.10;;;;;;;;;;4404605;32;20224;-56